Wolfsberg, Austria
Current Conditions -  °F | °C
As of 10:50 PM on Saturday 22 Nov 2014 (Local Time) from LOXZ Reporting Station
Scattered Clouds Scattered Clouds  
Wind Chill: 34°   Ceiling: Unl
Heat Index: 34°   Visibility: 5mi
Dew Point: 32°   Wind: 2mph
Humidity: 93%   Direction: 210°SSW
Pressure: 30.3"   Gusts: NA
Location:  46.85°N, 14.85°E
Report Text: LOXZ 222050Z 21002KT 8000 FEW010ST SCT260CI 01/00 Q1026 RMKSCT
Loading
Personal Weather Stations






























Interactive Weather Map New forecast layout! Learn more

10-Day Weather Forecast

Advertisements
Track Severe Weather on mobile